Time;durP1;ratioP1;P1;durP2;ratioP2;P2;SDS_P1;SDS_P2;PMS_P1;PMS_P2;Temp;Humidity;BMP_temperature;BMP_pressure;BME280_temperature;BME280_humidity;BME280_pressure;Samples;Min_cycle;Max_cycle;Signal;HPM_P1;HPM_P2
2022/12/31 00:00:14;;;;;;;8.77;5.70;;;;;;;6.72;100.00;100816.39;1724093;83;21189;-61
2022/12/31 00:02:42;;;;;;;10.03;6.73;;;;;;;6.71;100.00;100809.59;1726070;83;21212;-61
2022/12/31 00:05:10;;;;;;;8.87;6.57;;;;;;;6.69;100.00;100799.35;1726538;82;21818;-60
2022/12/31 00:07:38;;;;;;;10.90;6.70;;;;;;;6.68;100.00;100792.55;1726398;83;21176;-60
2022/12/31 00:10:07;;;;;;;9.43;7.03;;;;;;;6.67;100.00;100796.11;1725638;83;21369;-60
2022/12/31 00:12:34;;;;;;;9.57;6.40;;;;;;;6.66;100.00;100807.89;1725840;83;22135;-64
2022/12/31 00:15:04;;;;;;;10.10;6.57;;;;;;;6.63;100.00;100805.58;1725707;83;21658;-60
2022/12/31 00:17:31;;;;;;;10.40;6.40;;;;;;;6.63;100.00;100808.17;1726451;83;21475;-60
2022/12/31 00:19:59;;;;;;;11.10;6.27;;;;;;;6.62;100.00;100797.48;1726159;82;21246;-65
2022/12/31 00:22:26;;;;;;;9.47;6.13;;;;;;;6.60;100.00;100790.35;1725089;82;21279;-65
2022/12/31 00:24:54;;;;;;;9.17;6.97;;;;;;;6.58;100.00;100799.55;1726161;83;21362;-59
2022/12/31 00:27:22;;;;;;;9.90;6.70;;;;;;;6.56;100.00;100808.77;1726685;83;21240;-59
2022/12/31 00:29:49;;;;;;;10.43;7.53;;;;;;;6.55;100.00;100807.14;1726681;83;21159;-61
2022/12/31 00:32:16;;;;;;;9.97;6.20;;;;;;;6.55;100.00;100812.77;1725713;83;21109;-64
2022/12/31 00:34:44;;;;;;;9.27;6.87;;;;;;;6.53;100.00;100809.53;1726113;83;22078;-59
2022/12/31 00:37:12;;;;;;;7.87;5.97;;;;;;;6.51;100.00;100817.42;1725550;83;21828;-60
2022/12/31 00:39:39;;;;;;;11.73;7.00;;;;;;;6.51;100.00;100811.43;1725571;83;22053;-60
2022/12/31 00:42:08;;;;;;;12.67;7.03;;;;;;;6.51;100.00;100813.53;1725327;83;21090;-61
2022/12/31 00:44:35;;;;;;;8.83;6.30;;;;;;;6.49;100.00;100805.11;1725811;83;21214;-60
2022/12/31 00:47:02;;;;;;;10.80;6.77;;;;;;;6.48;100.00;100799.60;1725642;83;21324;-59
2022/12/31 00:49:30;;;;;;;8.37;6.23;;;;;;;6.46;100.00;100796.33;1726394;83;21356;-59
2022/12/31 00:51:57;;;;;;;10.30;6.50;;;;;;;6.45;100.00;100791.30;1725312;83;21277;-59
2022/12/31 00:54:24;;;;;;;11.30;6.90;;;;;;;6.43;100.00;100791.42;1725260;83;21271;-62
2022/12/31 00:56:52;;;;;;;10.30;7.03;;;;;;;6.38;100.00;100787.16;1725628;82;21502;-62
2022/12/31 00:59:19;;;;;;;11.37;5.87;;;;;;;6.33;100.00;100782.91;1725382;83;21522;-59
2022/12/31 01:01:46;;;;;;;10.77;7.23;;;;;;;6.28;100.00;100782.49;1726085;83;21268;-59
2022/12/31 01:04:16;;;;;;;10.63;7.03;;;;;;;6.21;100.00;100769.77;1723206;82;21368;-61
2022/12/31 01:06:43;;;;;;;9.73;6.50;;;;;;;6.13;100.00;100774.84;1710875;83;21277;-62
2022/12/31 01:09:12;;;;;;;9.77;6.90;;;;;;;6.06;100.00;100768.13;1710645;83;21221;-66
2022/12/31 01:11:39;;;;;;;9.33;6.50;;;;;;;6.00;100.00;100775.98;1710408;83;22345;-60
2022/12/31 01:14:14;;;;;;;8.67;6.43;;;;;;;5.94;100.00;100788.17;1711462;83;21190;-61
2022/12/31 01:16:47;;;;;;;9.50;7.20;;;;;;;5.88;100.00;100790.02;1711123;83;21266;-62
2022/12/31 01:19:24;;;;;;;9.47;7.40;;;;;;;5.85;100.00;100779.94;1710856;83;21844;-63
2022/12/31 01:21:51;;;;;;;9.07;6.20;;;;;;;5.82;100.00;100765.98;1710886;83;21206;-59
2022/12/31 01:24:19;;;;;;;8.40;6.07;;;;;;;5.78;100.00;100759.45;1710916;83;21340;-65
2022/12/31 01:26:47;;;;;;;8.37;6.07;;;;;;;5.72;100.00;100758.70;1710557;83;21716;-59
2022/12/31 01:29:15;;;;;;;10.33;6.20;;;;;;;5.64;100.00;100756.81;1710526;83;21749;-64
2022/12/31 01:31:43;;;;;;;9.93;6.37;;;;;;;5.53;100.00;100760.39;1711483;83;22622;-59
2022/12/31 01:34:10;;;;;;;9.10;6.73;;;;;;;5.45;100.00;100758.95;1710563;83;21270;-60
2022/12/31 01:36:37;;;;;;;9.17;5.90;;;;;;;5.36;100.00;100755.91;1711135;83;21177;-60
2022/12/31 01:39:05;;;;;;;8.03;5.97;;;;;;;5.27;100.00;100773.05;1710658;83;21390;-65
2022/12/31 01:41:42;;;;;;;8.53;5.83;;;;;;;5.19;100.00;100766.91;1711460;83;21709;-59
2022/12/31 01:44:26;;;;;;;10.73;7.17;;;;;;;5.17;100.00;100780.45;1710981;83;21259;-60
2022/12/31 01:46:58;;;;;;;10.53;7.17;;;;;;;5.17;100.00;100781.27;1710359;83;21287;-60
2022/12/31 01:49:39;;;;;;;12.63;8.40;;;;;;;5.22;100.00;100767.45;1710047;83;20991;-60
2022/12/31 01:52:16;;;;;;;12.28;7.10;;;;;;;5.23;100.00;100781.22;1710850;83;29361;-60
2022/12/31 01:54:48;;;;;;;9.90;7.05;;;;;;;5.24;100.00;100803.52;1711214;83;20946;-60
2022/12/31 01:57:15;;;;;;;10.17;7.33;;;;;;;5.28;100.00;100811.34;1710886;83;21089;-59
2022/12/31 01:59:43;;;;;;;10.97;7.83;;;;;;;5.34;100.00;100801.73;1711105;83;21763;-64
2022/12/31 02:02:11;;;;;;;13.27;7.67;;;;;;;5.40;100.00;100794.75;1711096;83;21181;-59
2022/12/31 02:04:38;;;;;;;9.93;6.63;;;;;;;5.43;100.00;100800.13;1690557;82;21788;-59
2022/12/31 02:07:06;;;;;;;10.65;6.35;;;;;;;5.46;100.00;100795.51;1729600;82;21580;-60
2022/12/31 02:09:37;;;;;;;9.15;6.97;;;;;;;5.48;100.00;100802.63;1728789;82;21147;-64
2022/12/31 02:12:05;;;;;;;9.60;7.67;;;;;;;5.50;100.00;100808.50;1728147;82;21832;-60
2022/12/31 02:14:36;;;;;;;10.30;7.37;;;;;;;5.51;100.00;100811.90;1729254;82;21224;-65
2022/12/31 02:17:23;;;;;;;10.10;7.07;;;;;;;5.53;100.00;100826.78;1729596;82;22611;-59
2022/12/31 02:20:30;;;;;;;10.47;7.07;;;;;;;5.54;100.00;100822.78;1729230;82;21749;-59
2022/12/31 02:23:21;;;;;;;10.70;6.83;;;;;;;5.57;100.00;100825.59;1728964;82;21282;-59
2022/12/31 02:26:08;;;;;;;10.37;7.73;;;;;;;5.59;100.00;100824.48;1728696;82;21175;-59
2022/12/31 02:28:46;;;;;;;11.30;7.73;;;;;;;5.57;100.00;100819.94;1728640;82;21394;-60
2022/12/31 02:31:48;;;;;;;10.90;8.43;;;;;;;5.58;100.00;100823.33;1728834;82;21175;-63
2022/12/31 02:34:32;;;;;;;11.50;8.37;;;;;;;5.57;100.00;100826.40;1729002;82;22048;-60
2022/12/31 02:37:00;;;;;;;11.70;8.83;;;;;;;5.53;100.00;100830.21;1690620;82;21400;-59
2022/12/31 02:39:27;;;;;;;14.03;8.13;;;;;;;5.49;100.00;100830.59;1703386;82;21489;-64
2022/12/31 02:41:55;;;;;;;10.60;7.23;;;;;;;5.44;100.00;100837.47;1729287;82;21713;-59
2022/12/31 02:44:33;;;;;;;11.93;7.13;;;;;;;5.40;100.00;100846.45;1729362;82;21181;-59
2022/12/31 02:47:21;;;;;;;11.40;6.53;;;;;;;5.35;100.00;100843.47;1729541;82;21458;-59
2022/12/31 02:50:14;;;;;;;11.67;8.20;;;;;;;5.29;100.00;100842.22;1729721;82;21977;-60
2022/12/31 02:52:59;;;;;;;11.03;7.60;;;;;;;5.24;100.00;100841.81;1729056;82;21573;-62
2022/12/31 02:55:53;;;;;;;10.90;6.97;;;;;;;5.20;100.00;100840.93;1728875;82;21070;-65
2022/12/31 03:04:34;;;;;;;10.73;7.40;;;;;;;5.08;100.00;100834.59;1729225;82;21159;-63
2022/12/31 03:07:07;;;;;;;10.15;7.67;;;;;;;5.02;100.00;100825.25;1729381;82;21687;-62
2022/12/31 03:09:35;;;;;;;9.13;7.33;;;;;;;4.92;100.00;100829.56;1729240;82;21212;-62
2022/12/31 03:14:50;;;;;;;11.80;9.03;;;;;;;4.75;100.00;100834.90;1728509;82;21168;-67
2022/12/31 03:17:17;;;;;;;12.85;9.00;;;;;;;4.67;100.00;100836.84;1728609;82;22683;-62
2022/12/31 03:22:32;;;;;;;10.78;7.92;;;;;;;4.59;100.00;100839.27;1728878;82;21369;-64
2022/12/31 03:27:52;;;;;;;14.75;9.88;;;;;;;4.53;100.00;100840.58;1729009;82;22691;-59
2022/12/31 03:30:20;;;;;;;12.80;9.37;;;;;;;4.54;100.00;100829.30;1728879;82;22153;-60
2022/12/31 03:32:48;;;;;;;13.68;9.75;;;;;;;4.59;100.00;100831.03;1729412;82;22111;-59
2022/12/31 03:35:18;;;;;;;12.88;9.65;;;;;;;4.63;100.00;100831.12;1729428;82;20973;-60
2022/12/31 03:37:45;;;;;;;11.37;9.17;;;;;;;4.68;100.00;100837.17;1728463;82;21048;-59
2022/12/31 03:40:13;;;;;;;14.37;9.73;;;;;;;4.71;100.00;100838.21;1729285;82;21446;-64
2022/12/31 03:42:41;;;;;;;12.17;9.33;;;;;;;4.75;100.00;100837.00;1701115;82;21243;-59
2022/12/31 03:45:10;;;;;;;12.37;10.50;;;;;;;4.77;100.00;100833.83;1728879;82;21234;-59
2022/12/31 03:47:37;;;;;;;15.03;11.43;;;;;;;4.79;100.00;100837.08;1728973;82;21045;-59
2022/12/31 03:50:05;;;;;;;13.23;10.20;;;;;;;4.81;100.00;100834.36;1729359;82;21300;-60
2022/12/31 03:52:33;;;;;;;11.80;9.10;;;;;;;4.80;100.00;100824.98;1729145;82;21120;-59
2022/12/31 03:55:01;;;;;;;13.98;8.98;;;;;;;4.81;100.00;100821.44;1729272;82;21827;-59
2022/12/31 03:57:28;;;;;;;14.10;8.57;;;;;;;4.81;100.00;100820.15;1728999;82;21002;-63
2022/12/31 03:59:55;;;;;;;12.93;9.90;;;;;;;4.81;100.00;100817.56;1729009;82;21766;-60
2022/12/31 04:02:23;;;;;;;14.83;10.53;;;;;;;4.80;100.00;100824.50;1728546;82;21588;-60
2022/12/31 04:04:50;;;;;;;14.33;10.38;;;;;;;4.81;100.00;100827.89;1728736;82;21237;-59
2022/12/31 04:07:18;;;;;;;14.70;9.67;;;;;;;4.83;100.00;100831.18;1728720;82;22258;-61
2022/12/31 04:09:45;;;;;;;13.33;9.00;;;;;;;4.82;100.00;100823.09;1728731;82;21495;-59
2022/12/31 04:12:13;;;;;;;13.35;8.63;;;;;;;4.84;100.00;100828.94;1729419;82;21705;-61
2022/12/31 04:14:40;;;;;;;13.87;9.33;;;;;;;4.84;100.00;100817.31;1728317;81;21022;-61
2022/12/31 04:17:07;;;;;;;14.27;9.60;;;;;;;4.84;100.00;100818.12;1729135;81;21177;-64
2022/12/31 04:19:35;;;;;;;12.05;9.03;;;;;;;4.82;100.00;100815.34;1728720;82;21300;-59
2022/12/31 04:22:03;;;;;;;12.40;8.08;;;;;;;4.79;100.00;100813.02;1728987;82;21471;-59
2022/12/31 04:24:30;;;;;;;11.13;8.43;;;;;;;4.74;100.00;100800.98;1729271;82;20968;-59
2022/12/31 04:26:57;;;;;;;12.27;9.70;;;;;;;4.70;100.00;100804.31;1729874;82;21196;-61
2022/12/31 04:29:25;;;;;;;13.33;8.73;;;;;;;4.66;100.00;100804.67;1728802;82;21286;-61
2022/12/31 04:31:53;;;;;;;12.63;9.33;;;;;;;4.59;100.00;100830.23;1729387;82;22105;-60
2022/12/31 04:34:21;;;;;;;13.13;9.05;;;;;;;4.54;100.00;100856.89;1729293;82;21591;-59
2022/12/31 04:36:48;;;;;;;11.47;8.50;;;;;;;4.53;100.00;100858.66;1729263;82;20941;-59
2022/12/31 04:39:15;;;;;;;15.20;9.83;;;;;;;4.54;100.00;100878.35;1728696;82;21373;-60
2022/12/31 04:41:44;;;;;;;11.47;8.67;;;;;;;4.57;100.00;100866.96;1728472;81;22558;-59
2022/12/31 04:44:12;;;;;;;13.45;9.55;;;;;;;4.61;100.00;100884.64;1729220;82;22057;-60
2022/12/31 04:46:39;;;;;;;14.50;9.10;;;;;;;4.63;100.00;100887.11;1728998;82;21530;-59
2022/12/31 04:49:07;;;;;;;14.85;10.08;;;;;;;4.67;100.00;100895.42;1728192;82;21210;-60
2022/12/31 04:51:37;;;;;;;15.90;9.83;;;;;;;4.65;100.00;100887.78;1728621;82;20995;-63
2022/12/31 04:54:04;;;;;;;12.20;8.80;;;;;;;4.61;100.00;100896.73;1728306;82;22118;-60
2022/12/31 04:56:35;;;;;;;14.63;9.35;;;;;;;4.55;100.00;100895.50;1729413;82;21224;-60
2022/12/31 04:59:03;;;;;;;12.58;8.68;;;;;;;4.49;100.00;100892.13;1728368;82;20992;-60
2022/12/31 05:01:31;;;;;;;13.30;8.38;;;;;;;4.46;100.00;100888.51;1728322;82;20960;-59
2022/12/31 05:03:59;;;;;;;14.40;9.48;;;;;;;4.44;100.00;100891.70;1728932;82;21009;-60
2022/12/31 05:06:26;;;;;;;12.57;9.67;;;;;;;4.39;100.00;100894.67;1719677;82;21536;-60
2022/12/31 05:08:54;;;;;;;13.43;9.65;;;;;;;4.33;100.00;100904.68;1709868;83;22628;-60
2022/12/31 05:11:22;;;;;;;11.73;9.20;;;;;;;4.30;100.00;100913.96;1710920;83;21072;-59
2022/12/31 05:13:49;;;;;;;13.13;9.35;;;;;;;4.28;100.00;100913.25;1709960;83;21000;-60
2022/12/31 05:16:17;;;;;;;16.25;10.08;;;;;;;4.27;100.00;100915.02;1711295;83;21045;-60
2022/12/31 05:18:44;;;;;;;14.47;9.83;;;;;;;4.27;100.00;100920.66;1710801;83;21057;-62
2022/12/31 05:21:16;;;;;;;13.58;9.95;;;;;;;4.25;100.00;100922.56;1711178;83;22111;-60
2022/12/31 05:23:43;;;;;;;13.70;9.60;;;;;;;4.23;100.00;100928.30;1711514;83;20965;-60
2022/12/31 05:26:11;;;;;;;12.37;8.63;;;;;;;4.18;100.00;100923.53;1711427;83;20910;-60
2022/12/31 05:28:40;;;;;;;15.53;9.93;;;;;;;4.18;100.00;100927.88;1710595;83;20958;-64
2022/12/31 05:31:07;;;;;;;15.43;9.50;;;;;;;4.16;100.00;100926.69;1710596;83;22328;-61
2022/12/31 05:33:35;;;;;;;15.35;9.85;;;;;;;4.18;100.00;100936.91;1709914;83;22437;-61
2022/12/31 05:36:04;;;;;;;13.43;10.30;;;;;;;4.18;100.00;100941.59;1710588;83;21523;-60
2022/12/31 05:38:32;;;;;;;11.48;9.10;;;;;;;4.20;100.00;100947.91;1711014;83;21060;-60
2022/12/31 05:41:02;;;;;;;14.68;10.35;;;;;;;4.23;100.00;100946.38;1709902;83;20974;-61
2022/12/31 05:43:29;;;;;;;14.63;10.98;;;;;;;4.25;100.00;100948.37;1711135;83;21382;-65
2022/12/31 05:46:02;;;;;;;15.68;11.97;;;;;;;4.26;100.00;100941.78;1709836;83;21566;-60
2022/12/31 05:48:29;;;;;;;13.80;10.90;;;;;;;4.27;100.00;100943.88;1687595;83;20989;-60
2022/12/31 05:50:56;;;;;;;16.82;13.18;;;;;;;4.24;100.00;100949.29;1710732;83;20974;-61
2022/12/31 05:53:24;;;;;;;18.90;11.83;;;;;;;4.21;100.00;100956.02;1710595;83;21611;-60
2022/12/31 05:55:51;;;;;;;15.23;11.38;;;;;;;4.17;100.00;100948.99;1710813;83;21729;-60
2022/12/31 05:58:18;;;;;;;16.27;12.30;;;;;;;4.18;100.00;100951.09;1709723;83;21442;-60
2022/12/31 06:00:46;;;;;;;18.37;12.10;;;;;;;4.18;100.00;100943.36;1711010;83;20998;-59
2022/12/31 06:03:15;;;;;;;16.75;12.70;;;;;;;4.19;100.00;100939.83;1709595;83;21060;-60
2022/12/31 06:05:42;;;;;;;17.15;11.75;;;;;;;4.20;100.00;100953.06;1711311;82;21072;-60
2022/12/31 06:08:10;;;;;;;16.65;11.90;;;;;;;4.20;100.00;100951.77;1725416;83;20981;-64
2022/12/31 06:10:38;;;;;;;18.90;12.37;;;;;;;4.21;100.00;100954.72;1726184;82;21270;-60
2022/12/31 06:13:06;;;;;;;19.15;12.68;;;;;;;4.23;100.00;100956.69;1725667;83;21488;-64
2022/12/31 06:15:38;;;;;;;18.23;12.58;;;;;;;4.22;100.00;100953.30;1725973;83;21052;-61
2022/12/31 06:18:07;;;;;;;19.48;12.90;;;;;;;4.24;100.00;100957.03;1726797;83;21005;-61
2022/12/31 06:20:36;;;;;;;20.30;13.60;;;;;;;4.26;100.00;100966.77;1727242;83;21558;-61
2022/12/31 06:23:04;;;;;;;16.32;12.33;;;;;;;4.28;100.00;100977.77;1725530;82;22013;-65
2022/12/31 06:25:34;;;;;;;20.73;14.53;;;;;;;4.30;100.00;101000.42;1725451;83;21037;-63
2022/12/31 06:28:02;;;;;;;20.60;14.45;;;;;;;4.31;100.00;101004.16;1725809;83;22623;-61
2022/12/31 06:30:29;;;;;;;21.57;13.48;;;;;;;4.29;100.00;101002.66;1726307;83;20988;-61
2022/12/31 06:32:56;;;;;;;22.22;14.43;;;;;;;4.26;100.00;100995.97;1726025;83;20925;-65
2022/12/31 06:35:23;;;;;;;22.87;14.73;;;;;;;4.22;100.00;101000.22;1725803;83;22350;-61
2022/12/31 06:37:51;;;;;;;21.05;14.55;;;;;;;4.21;100.00;101006.34;1726079;83;21569;-61
2022/12/31 06:40:18;;;;;;;22.00;16.35;;;;;;;4.21;100.00;101003.75;1725676;82;20981;-64
2022/12/31 06:42:46;;;;;;;21.27;15.18;;;;;;;4.22;100.00;101016.52;1725585;83;21013;-60
2022/12/31 06:45:14;;;;;;;20.40;15.48;;;;;;;4.22;100.00;101021.68;1725475;83;21120;-60
2022/12/31 06:47:42;;;;;;;22.73;16.45;;;;;;;4.26;100.00;101024.84;1727233;83;21145;-60
2022/12/31 06:50:09;;;;;;;24.40;16.50;;;;;;;4.27;100.00;101016.95;1726892;82;21543;-60
2022/12/31 06:52:37;;;;;;;24.23;17.23;;;;;;;4.28;100.00;101025.08;1726616;82;21499;-60
2022/12/31 06:55:06;;;;;;;22.55;16.30;;;;;;;4.30;100.00;101022.36;1725516;83;20972;-64
2022/12/31 06:57:34;;;;;;;24.72;17.90;;;;;;;4.30;100.00;101037.84;1725647;82;21500;-62
2022/12/31 07:00:02;;;;;;;23.47;16.23;;;;;;;4.29;100.00;101032.34;1726160;83;21075;-61
2022/12/31 07:03:03;;;;;;;23.35;16.48;;;;;;;4.33;100.00;101039.70;1726244;83;21040;-60
2022/12/31 07:05:42;;;;;;;24.12;17.00;;;;;;;4.52;100.00;101046.79;1726179;83;21483;-63
2022/12/31 07:08:30;;;;;;;24.70;16.63;;;;;;;4.81;100.00;101040.55;1709578;82;21133;-60
2022/12/31 07:11:11;;;;;;;24.80;17.67;;;;;;;4.98;100.00;101048.66;1715765;82;21636;-59
2022/12/31 07:14:07;;;;;;;23.92;17.05;;;;;;;5.03;100.00;101052.96;1716470;83;22228;-61
2022/12/31 07:16:44;;;;;;;27.70;17.47;;;;;;;5.02;100.00;101058.61;1716561;83;21074;-60
2022/12/31 07:19:36;;;;;;;25.73;17.57;;;;;;;5.02;100.00;101058.61;1716776;83;21284;-64
2022/12/31 07:22:04;;;;;;;22.80;16.53;;;;;;;5.00;100.00;101064.84;1717603;83;21248;-60
2022/12/31 07:24:32;;;;;;;24.67;16.43;;;;;;;4.96;100.00;101062.97;1717686;83;20973;-61
2022/12/31 07:27:13;;;;;;;24.80;17.87;;;;;;;4.96;100.00;101064.27;1717952;82;21218;-60
2022/12/31 07:29:58;;;;;;;24.98;17.77;;;;;;;5.06;100.00;101074.20;1716544;83;22267;-63
2022/12/31 07:32:58;;;;;;;24.07;17.10;;;;;;;5.25;100.00;101069.61;1716461;83;21818;-59
2022/12/31 07:36:23;;;;;;;22.53;16.93;;;;;;;5.36;100.00;101069.53;1676334;83;21369;-63
2022/12/31 07:39:07;;;;;;;24.20;17.27;;;;;;;5.42;100.00;101066.92;1716639;83;21190;-60
2022/12/31 07:41:55;;;;;;;22.40;16.40;;;;;;;5.44;100.00;101083.10;1716751;82;21317;-65
2022/12/31 07:45:02;;;;;;;24.23;17.30;;;;;;;5.44;100.00;101089.56;1716993;83;21177;-60
2022/12/31 07:47:30;;;;;;;24.97;17.47;;;;;;;5.43;100.00;101084.06;1717240;83;21432;-59
2022/12/31 07:49:58;;;;;;;25.30;18.20;;;;;;;5.44;100.00;101080.52;1717838;83;21293;-60
2022/12/31 07:52:26;;;;;;;21.97;16.10;;;;;;;5.48;100.00;101086.25;1717912;83;21401;-60
2022/12/31 07:54:53;;;;;;;22.67;16.43;;;;;;;5.56;100.00;101089.82;1717629;83;21216;-63
2022/12/31 07:57:21;;;;;;;21.87;16.50;;;;;;;5.72;100.00;101090.66;1716739;82;21220;-60
2022/12/31 08:00:13;;;;;;;23.87;16.87;;;;;;;5.81;100.00;101095.03;1717183;83;21716;-59
2022/12/31 08:03:02;;;;;;;22.23;16.60;;;;;;;5.88;100.00;101096.62;1716804;82;21908;-64
2022/12/31 08:05:54;;;;;;;22.03;16.43;;;;;;;5.93;100.00;101099.66;1717327;83;21062;-59
2022/12/31 08:08:30;;;;;;;22.05;15.03;;;;;;;5.90;100.00;101094.70;1719066;83;21925;-60
2022/12/31 08:11:46;;;;;;;23.07;15.83;;;;;;;5.81;100.00;101092.92;1725982;83;20981;-63
2022/12/31 08:14:15;;;;;;;21.47;15.10;;;;;;;5.77;100.00;101101.89;1726232;82;21174;-59
2022/12/31 08:16:43;;;;;;;19.07;14.80;;;;;;;5.69;100.00;101099.15;1726451;83;21171;-60
2022/12/31 08:19:27;;;;;;;22.60;16.17;;;;;;;5.68;100.00;101102.66;1726127;82;20951;-65
2022/12/31 08:22:18;;;;;;;21.37;14.97;;;;;;;5.69;100.00;101099.97;1717331;83;21118;-60
2022/12/31 08:25:02;;;;;;;19.23;14.40;;;;;;;5.71;100.00;101097.23;1725880;83;21565;-63
2022/12/31 08:27:47;;;;;;;20.57;13.90;;;;;;;5.77;100.00;101106.59;1726473;81;21360;-60
2022/12/31 08:30:16;;;;;;;22.23;15.03;;;;;;;5.82;100.00;101104.90;1725798;83;21278;-60
2022/12/31 08:33:11;;;;;;;23.27;15.10;;;;;;;5.84;100.00;101098.66;1725864;83;22059;-63
2022/12/31 08:36:00;;;;;;;22.63;15.33;;;;;;;5.90;100.00;101106.83;1725401;83;21218;-65
2022/12/31 08:38:48;;;;;;;18.67;14.23;;;;;;;5.91;100.00;101102.83;1725823;83;21181;-64
2022/12/31 08:41:32;;;;;;;22.10;14.80;;;;;;;5.90;100.00;101104.24;1725093;83;21524;-60
2022/12/31 08:44:39;;;;;;;19.07;13.73;;;;;;;5.88;100.00;101100.50;1726045;83;21346;-60
2022/12/31 08:47:37;;;;;;;21.47;15.13;;;;;;;5.88;100.00;101104.39;1726524;83;21318;-60
2022/12/31 08:50:06;;;;;;;20.60;14.03;;;;;;;5.92;100.00;101104.50;1725667;82;21623;-64
2022/12/31 08:52:34;;;;;;;19.97;14.03;;;;;;;5.92;100.00;101102.36;1726114;82;22020;-61
2022/12/31 08:55:03;;;;;;;18.23;13.40;;;;;;;5.90;100.00;101103.77;1726253;83;21353;-61
2022/12/31 08:58:11;;;;;;;19.00;13.63;;;;;;;5.86;100.00;101104.50;1726092;83;21303;-65
2022/12/31 09:00:39;;;;;;;20.53;14.57;;;;;;;5.90;100.00;101104.24;1726093;83;21876;-60
2022/12/31 09:03:20;;;;;;;17.20;12.50;;;;;;;5.92;100.00;101101.91;1672586;82;21352;-65
2022/12/31 09:06:28;;;;;;;17.95;12.15;;;;;;;5.93;100.00;101098.84;1661062;86;21273;-60
2022/12/31 09:09:28;;;;;;;15.90;11.67;;;;;;;5.87;100.00;101097.55;1714433;82;21089;-61
2022/12/31 09:12:10;;;;;;;14.97;10.27;;;;;;;5.76;100.00;101096.39;1711180;83;21557;-64
2022/12/31 09:14:47;;;;;;;17.23;11.87;;;;;;;5.71;100.00;101100.63;1712467;83;21816;-60
2022/12/31 09:17:32;;;;;;;16.57;10.70;;;;;;;5.66;100.00;101105.88;1711825;83;22180;-60
2022/12/31 09:19:59;;;;;;;14.20;10.17;;;;;;;5.63;100.00;101104.34;1711007;83;21357;-61
2022/12/31 09:22:29;;;;;;;17.10;11.73;;;;;;;5.64;100.00;101105.98;1711166;83;32703;-60
2022/12/31 09:24:57;;;;;;;15.03;10.80;;;;;;;5.63;100.00;101101.77;1711037;83;21177;-59
2022/12/31 09:27:36;;;;;;;15.40;11.37;;;;;;;5.61;100.00;101099.32;1710802;83;21219;-62
2022/12/31 09:30:13;;;;;;;16.37;11.43;;;;;;;5.57;100.00;101095.36;1710875;83;21293;-60
2022/12/31 09:33:09;;;;;;;18.43;11.47;;;;;;;5.52;100.00;101099.27;1710257;83;21184;-61
2022/12/31 09:35:56;;;;;;;16.90;11.40;;;;;;;5.43;100.00;101097.47;1710745;83;21731;-59
2022/12/31 09:38:44;;;;;;;15.47;10.73;;;;;;;5.34;100.00;101094.71;1710690;83;21246;-62
2022/12/31 09:41:36;;;;;;;17.43;10.60;;;;;;;5.30;100.00;101100.23;1710611;83;21589;-60
2022/12/31 09:44:40;;;;;;;15.23;10.43;;;;;;;5.30;100.00;101091.19;1711618;83;22405;-63
2022/12/31 09:47:39;;;;;;;14.53;10.03;;;;;;;5.31;100.00;101096.73;1711635;83;20942;-60
2022/12/31 09:50:32;;;;;;;17.37;11.87;;;;;;;5.29;100.00;101090.85;1711592;83;21381;-60
2022/12/31 09:53:25;;;;;;;16.80;11.00;;;;;;;5.25;100.00;101090.29;1710726;83;21054;-65
2022/12/31 09:56:27;;;;;;;16.90;10.50;;;;;;;5.21;100.00;101092.78;1711038;83;21738;-60
2022/12/31 09:59:25;;;;;;;15.55;10.80;;;;;;;5.21;100.00;101094.55;1711572;83;21299;-59
2022/12/31 10:02:23;;;;;;;16.63;11.67;;;;;;;5.17;100.00;101093.98;1710678;83;21044;-60
2022/12/31 10:05:04;;;;;;;15.27;10.73;;;;;;;5.12;100.00;101093.09;1707092;83;21190;-63
2022/12/31 10:08:02;;;;;;;16.80;11.60;;;;;;;5.07;100.00;101086.64;1671879;82;21356;-60
2022/12/31 10:10:41;;;;;;;15.10;10.77;;;;;;;5.03;100.00;101091.24;1711202;83;21051;-60
2022/12/31 10:13:45;;;;;;;18.32;12.23;;;;;;;5.00;100.00;101088.94;1711770;83;21637;-59
2022/12/31 10:16:43;;;;;;;18.73;11.80;;;;;;;4.95;100.00;101090.24;1710841;83;20994;-60
2022/12/31 10:19:24;;;;;;;18.00;12.33;;;;;;;4.89;100.00;101099.33;1711305;83;21739;-59
2022/12/31 10:22:42;;;;;;;16.37;11.45;;;;;;;4.82;100.00;101103.36;1711087;83;22076;-59
2022/12/31 10:25:41;;;;;;;19.87;12.53;;;;;;;4.75;100.00;101098.34;1697645;83;22105;-61
2022/12/31 10:28:23;;;;;;;20.13;12.00;;;;;;;4.70;100.00;101099.16;1710408;83;21884;-60
2022/12/31 10:31:16;;;;;;;16.00;11.17;;;;;;;4.63;100.00;101098.38;1711372;83;21253;-60
2022/12/31 10:34:08;;;;;;;17.90;11.97;;;;;;;4.58;100.00;101091.94;1706520;83;21512;-61
2022/12/31 10:36:56;;;;;;;18.05;12.60;;;;;;;4.54;100.00;101099.11;1712441;83;21753;-60
2022/12/31 10:39:40;;;;;;;20.30;13.03;;;;;;;4.55;100.00;101097.37;1711902;83;22109;-60
2022/12/31 10:42:41;;;;;;;16.73;11.00;;;;;;;4.53;100.00;101101.34;1710824;83;21234;-59
2022/12/31 10:45:38;;;;;;;18.15;12.37;;;;;;;4.48;100.00;101102.67;1710986;83;21787;-62
2022/12/31 10:48:32;;;;;;;19.00;12.47;;;;;;;4.45;100.00;101109.36;1711068;83;21087;-60
2022/12/31 10:51:37;;;;;;;20.23;12.30;;;;;;;4.42;100.00;101116.88;1710837;83;22321;-60
2022/12/31 10:54:20;;;;;;;16.83;11.40;;;;;;;4.38;100.00;101118.06;1711698;83;21266;-59
2022/12/31 10:57:14;;;;;;;;;;;;;;;4.31;100.00;101114.32;1714258;83;21599;-62
2022/12/31 11:00:08;;;;;;;19.12;11.68;;;;;;;4.26;100.00;101113.88;1711926;83;20117;-60
2022/12/31 11:02:58;;;;;;;18.33;11.47;;;;;;;4.18;100.00;101115.77;1711121;83;21084;-59
2022/12/31 11:06:03;;;;;;;18.77;12.15;;;;;;;4.10;100.00;101117.66;1709692;83;21106;-65
2022/12/31 11:08:55;;;;;;;16.45;10.53;;;;;;;4.06;100.00;101125.77;1715316;82;21032;-61
2022/12/31 11:11:45;;;;;;;;;;;;;;;4.02;100.00;101125.66;1729139;83;21263;-60
2022/12/31 11:14:42;;;;;;;16.23;10.13;;;;;;;4.05;100.00;101130.11;1725679;83;20613;-64
2022/12/31 11:17:51;;;;;;;16.02;10.72;;;;;;;4.05;100.00;101131.40;1726404;83;21597;-65
2022/12/31 11:20:47;;;;;;;17.48;11.03;;;;;;;3.98;100.00;101136.67;1725626;83;21388;-61
2022/12/31 11:23:46;;;;;;;15.50;10.75;;;;;;;4.03;100.00;101141.00;1726120;83;20930;-62
2022/12/31 11:26:19;;;;;;;16.62;11.25;;;;;;;4.04;100.00;101150.84;1727001;83;21172;-62
2022/12/31 11:29:12;;;;;;;17.27;11.88;;;;;;;4.05;100.00;101157.20;1724107;83;21024;-63
2022/12/31 11:32:08;;;;;;;17.98;11.75;;;;;;;4.12;100.00;101145.91;1725834;83;21051;-60
2022/12/31 11:34:55;;;;;;;18.07;12.10;;;;;;;4.18;100.00;101149.78;1725748;83;20987;-65
2022/12/31 11:37:52;;;;;;;19.23;11.65;;;;;;;4.24;100.00;101152.69;1723922;83;21209;-61
2022/12/31 11:40:41;;;;;;;17.95;10.60;;;;;;;4.24;100.00;101157.03;1724090;83;21182;-64
2022/12/31 11:43:45;;;;;;;16.90;11.15;;;;;;;4.24;100.00;101162.20;1724804;83;21057;-65
2022/12/31 11:47:04;;;;;;;16.32;10.78;;;;;;;4.24;100.00;101168.64;1725729;83;20974;-63
2022/12/31 11:49:59;;;;;;;16.47;10.60;;;;;;;4.26;100.00;101167.59;1727091;83;21479;-60
2022/12/31 11:52:55;;;;;;;16.60;10.70;;;;;;;4.22;100.00;101162.80;1715180;83;21192;-60
2022/12/31 11:55:52;;;;;;;15.72;10.38;;;;;;;4.17;100.00;101164.89;1725509;83;21706;-60
2022/12/31 11:58:19;;;;;;;15.00;9.98;;;;;;;4.13;100.00;101166.92;1695969;84;20985;-61
2022/12/31 12:01:06;;;;;;;15.95;10.78;;;;;;;4.14;100.00;101162.92;1718153;83;21566;-63
2022/12/31 12:03:38;;;;;;;16.32;10.03;;;;;;;4.13;100.00;101165.16;1726547;83;21093;-60
2022/12/31 12:06:03;;;;;;;16.80;12.55;;;;;;;4.13;100.00;101174.19;1725217;83;20878;-61
2022/12/31 12:08:31;;;;;;;18.17;11.40;;;;;;;4.09;100.00;101179.23;1724102;82;22087;-59
2022/12/31 12:11:17;;;;;;;20.05;12.05;;;;;;;4.03;100.00;101186.15;1711245;83;20985;-64
2022/12/31 12:13:45;;;;;;;15.58;10.68;;;;;;;3.98;100.00;101193.43;1688260;83;21125;-62